Flight Track Log - Related Links

Times and Time Zones

All times are in EST time to prevent confusion due to time zone crossing. See the FFT918 flight status page for this flight to view local times or setup timezone preferences in your user account.

Time Position Orientation Groundspeed Altitude Reporting Facility
EST Latitude Longitude Course Direction KTS MPH feet Rate Location/Type
Mon 10:11:31 AM 28.4333 -81.3000 North 175 201 400  Level Orlando TRACON
Mon 10:12:13 AM 28.4667 -81.2833 24° Northeast 182 209 1,900 2,039 Climbing Orlando TRACON
Mon 10:13:14 AM 28.5333 -81.2500 24° Northeast 264 304 3,900 2,529 Climbing Orlando TRACON
Mon 10:14:14 AM 28.6000 -81.2667 348° North 268 308 7,000 2,616 Climbing Orlando TRACON
Mon 10:16:06 AM 28.7450 -81.2894 352° North 293 337 11,400 2,442 Climbing Jacksonville Center
Mon 10:17:00 AM 29.1530 -81.3833 North  Level FlightAware Approximate
Mon 10:17:06 AM 28.8369 -81.2928 358° North 311 358 14,000  Level Jacksonville Center
Mon 10:18:06 AM 28.9292 -81.3222 344° North 328 377 17,500 3,050 Climbing Jacksonville Center
Mon 10:19:06 AM 29.0089 -81.3542 341° North 322 371 20,100 2,200 Climbing Jacksonville Center
Mon 10:20:06 AM 29.0928 -81.3861 342° North 316 364 21,900 1,350 Climbing Jacksonville Center
Mon 10:21:06 AM 29.1911 -81.3989 354° North 321 369 22,800 1,150 Climbing Jacksonville Center
Mon 10:22:06 AM 29.2997 -81.4092 355° North 359 413 24,200 1,450 Climbing Jacksonville Center
Mon 10:23:06 AM 29.4125 -81.4169 357° North 389 448 25,700 1,400 Climbing Jacksonville Center
Mon 10:24:06 AM 29.5253 -81.4319 353° North 402 463 27,000 1,300 Climbing Jacksonville Center
Mon 10:25:06 AM 29.6467 -81.4444 355° North 416 479 28,300 1,300 Climbing Jacksonville Center
Mon 10:26:06 AM 29.7678 -81.4547 356° North 428 493 29,600 1,200 Climbing Jacksonville Center
Mon 10:27:06 AM 29.8911 -81.4672 355° North 428 493 30,700 650 Climbing Jacksonville Center
Mon 10:28:06 AM 30.0289 -81.4794 356° North 441 507 30,900 99 Climbing Jacksonville Center
Mon 10:29:07 AM 30.1525 -81.4944 354° North 441 507 30,900  Level Jacksonville Center
Mon 10:30:06 AM 30.2778 -81.5047 356° North 441 507 30,900  Level Jacksonville Center
Mon 10:31:06 AM 30.4031 -81.5053 360° North 441 507 30,900  Level Jacksonville Center
Mon 10:32:07 AM 30.5283 -81.4961 North 441 507 30,900  Level Jacksonville Center
Mon 10:33:06 AM 30.6575 -81.4847 North 446 513 30,900  Level Jacksonville Center
Mon 10:34:06 AM 30.7828 -81.4756 North 446 513 30,900 1,000 Level Jacksonville Center
Mon 10:35:06 AM 30.9036 -81.4664 North 446 513 32,900 1,200 Climbing Jacksonville Center
Mon 10:36:06 AM 31.0269 -81.4597 North 438 504 33,300 900 Climbing Jacksonville Center
Mon 10:37:06 AM 31.1542 -81.4481 North 443 510 34,700 800 Climbing Jacksonville Center
Mon 10:38:06 AM 31.2769 -81.4317 North 443 510 34,900 450 Climbing Jacksonville Center
Mon 10:39:06 AM 31.3894 -81.4031 12° North 451 519 35,600 744 Climbing Jacksonville Center
Mon 10:40:07 AM 31.5269 -81.3864 North 446 513 36,400 595 Climbing Jacksonville Center
Mon 10:41:07 AM 31.6542 -81.3697 North 451 519 36,800 303 Climbing Jacksonville Center
Mon 10:42:06 AM 31.7708 -81.3506 North 461 531 37,000 50 Climbing Jacksonville Center
Mon 10:43:06 AM 31.9086 -81.3311 North 455 524 36,900 -50 Descending Jacksonville Center
Mon 10:44:07 AM 32.0378 -81.3142 North 466 536 36,900  Level Jacksonville Center
Mon 10:45:06 AM 32.1647 -81.2972 North 458 527 36,900  Level Jacksonville Center
Mon 10:46:07 AM 32.2878 -81.2781 North 456 525 36,900  Level Jacksonville Center
Mon 10:47:07 AM 32.4150 -81.2611 North 456 525 36,900 50 Level Jacksonville Center
Mon 10:48:06 AM 32.5294 -81.2467 North 463 533 37,000 50 Climbing Jacksonville Center
Mon 10:49:06 AM 32.6542 -81.2050 16° North 468 539 37,000 -50 Level Jacksonville Center
Mon 10:50:07 AM 32.7956 -81.1553 16° North 468 539 36,900 -50 Descending Jacksonville Center
Mon 10:51:06 AM 32.9222 -81.1108 16° North 473 544 36,900  Level Jacksonville Center
Mon 10:52:06 AM 33.0489 -81.0661 16° North 473 544 36,900  Level Jacksonville Center
Mon 10:53:07 AM 33.1756 -81.0239 16° North 473 544 36,900 50 Level Jacksonville Center
Mon 10:54:06 AM 33.3044 -80.9789 16° North 473 544 37,000  Climbing Jacksonville Center
Mon 10:55:06 AM 33.4289 -80.9364 16° North 473 544 36,900 -50 Descending Jacksonville Center
Mon 10:56:07 AM 33.5556 -80.8886 17° North 473 544 36,900  Level Jacksonville Center
Mon 10:57:06 AM 33.6822 -80.8458 16° North 473 544 36,900  Level Jacksonville Center
Mon 10:58:06 AM 33.8067 -80.8006 17° North 473 544 36,900  Level Jacksonville Center
Mon 10:59:07 AM 33.9311 -80.7550 17° North 473 544 36,900  Level Jacksonville Center
Mon 11:00:39 AM 34.1056 -80.6919 17° North 473 544 36,900  Level Atlanta Center
Mon 11:01:39 AM 34.2400 -80.6442 16° North 463 533 36,900  Level Atlanta Center
Mon 11:02:39 AM 34.3658 -80.5986 17° North 457 526 36,900 50 Level Atlanta Center
Mon 11:03:39 AM 34.4897 -80.5533 17° North 457 526 37,000 50 Climbing Atlanta Center
Mon 11:04:39 AM 34.6158 -80.5078 17° North 457 526 37,000  Level Atlanta Center
Mon 11:05:39 AM 34.7419 -80.4619 17° North 457 526 37,000  Level Atlanta Center
Mon 11:06:39 AM 34.8678 -80.4161 17° North 464 534 37,000 -50 Level Atlanta Center
Mon 11:07:39 AM 34.9958 -80.3675 17° North 469 540 36,900 -50 Descending Atlanta Center
Mon 11:08:39 AM 35.1217 -80.3239 16° North 469 540 36,900  Level Atlanta Center
Mon 11:09:39 AM 35.2453 -80.2750 18° North 469 540 36,900 50 Level Atlanta Center
Mon 11:10:39 AM 35.3714 -80.2311 16° North 469 540 37,000 50 Climbing Atlanta Center
Mon 11:11:39 AM 35.4950 -80.1844 17° North 469 540 37,000 -50 Level Atlanta Center
Mon 11:12:39 AM 35.6186 -80.1353 18° North 469 540 36,900  Descending Atlanta Center
Mon 11:14:17 AM 35.8031 -80.0714 16° North 468 539 37,000  Climbing Washington Center
Mon 11:15:17 AM 35.9281 -80.0219 18° North 463 533 36,900  Descending Washington Center
Mon 11:16:15 AM 36.0453 -79.9514 26° Northeast 468 539 37,000 50 Climbing Washington Center
Mon 11:17:16 AM 36.1497 -79.8339 42° Northeast 488 562 37,000 -50 Level Washington Center
Mon 11:18:16 AM 36.2572 -79.6825 49° Northeast 501 577 36,900  Descending Washington Center
Mon 11:19:15 AM 36.3517 -79.5431 50° Northeast 526 605 37,000 50 Climbing Washington Center
Mon 11:20:15 AM 36.4458 -79.4083 49° Northeast 521 600 37,000  Level Washington Center
Mon 11:21:16 AM 36.5419 -79.2708 49° Northeast 521 600 37,000  Level Washington Center
Mon 11:22:16 AM 36.6378 -79.1356 49° Northeast 521 600 37,000  Level Washington Center
Mon 11:23:16 AM 36.7250 -79.0075 50° Northeast 521 600 37,000  Level Washington Center
Mon 11:24:15 AM 36.8206 -78.8714 49° Northeast 521 600 37,000  Level Washington Center
Mon 11:25:15 AM 36.9161 -78.7328 49° Northeast 521 600 37,000  Level Washington Center
Mon 11:26:17 AM 37.0222 -78.5808 49° Northeast 521 600 37,000 -49 Level Washington Center
Mon 11:27:17 AM 37.1175 -78.4414 49° Northeast 521 600 36,900 -51 Descending Washington Center
Mon 11:28:15 AM 37.2225 -78.3122 44° Northeast 521 600 36,900 50 Level Washington Center
Mon 11:29:16 AM 37.3233 -78.1853 45° Northeast 515 593 37,000 49 Climbing Washington Center
Mon 11:30:17 AM 37.4114 -78.0731 45° Northeast 504 580 37,000  Level Washington Center
Mon 11:31:15 AM 37.5119 -77.9481 45° Northeast 504 580 37,000 -655 Level Washington Center
Mon 11:32:16 AM 37.6125 -77.8203 45° Northeast 504 580 35,700 -1,983 Descending Washington Center
Mon 11:33:16 AM 37.7147 -77.6919 45° Northeast 504 580 33,000 -2,331 Descending Washington Center
Mon 11:34:17 AM 37.8169 -77.5686 44° Northeast 504 580 31,000 -1,059 Descending Washington Center
Mon 11:35:15 AM 37.9272 -77.4636 37° Northeast 492 566 30,900  Descending Washington Center
Mon 11:36:16 AM 38.0369 -77.3686 34° Northeast 487 560 31,000 50 Climbing Washington Center
Mon 11:37:16 AM 38.1469 -77.2656 36° Northeast 487 560 31,000 -50 Level Washington Center
Mon 11:38:17 AM 38.2589 -77.1625 36° Northeast 487 560 30,900 -198 Descending Washington Center
Mon 11:39:17 AM 38.3686 -77.0614 36° Northeast 482 555 30,600 -1,119 Descending Washington Center
Mon 11:40:15 AM 38.4783 -76.9603 36° Northeast 482 555 28,700 -2,085 Descending Washington Center
Mon 11:41:15 AM 38.5856 -76.8611 36° Northeast 482 555 26,500 -2,231 Descending Washington Center
Mon 11:42:16 AM 38.6889 -76.7539 39° Northeast 482 555 24,200 -1,934 Descending Washington Center
Mon 11:43:16 AM 38.7383 -76.5817 70° East 482 555 22,600 -2,727 Descending Washington Center
Mon 11:44:17 AM 38.7731 -76.4064 76° East 482 555 18,700 -3,378 Descending Washington Center
Mon 11:45:15 AM 38.8094 -76.2417 74° East 487 560 15,900 -1,850 Descending Washington Center
Mon 11:46:17 AM 38.8414 -76.0875 75° East 464 534 15,000 -443 Descending Washington Center
Mon 11:47:17 AM 38.8689 -75.9408 76° East 439 505 15,000  Level Washington Center
Mon 11:48:15 AM 38.9194 -75.8131 63° Northeast 397 457 15,000  Level Washington Center
Mon 11:49:15 AM 39.0008 -75.7333 37° Northeast 371 427 15,000 -621 Level Washington Center
Mon 11:51:38 AM 39.2167 -75.6667 13° North 324 373 12,900 -887 Descending Philadelphia TRACON
Mon 11:52:38 AM 39.3167 -75.6333 14° North 365 420 12,000 -450 Descending Philadelphia TRACON
Mon 11:53:38 AM 39.4000 -75.5667 32° Northeast 358 412 12,000  Level Philadelphia TRACON
Mon 11:54:38 AM 39.4833 -75.4833 38° Northeast 358 412 12,000  Level Philadelphia TRACON
Mon 11:55:38 AM 39.5500 -75.3833 49° Northeast 362 417 12,000  Level Philadelphia TRACON
Mon 11:56:38 AM 39.6167 -75.3000 44° Northeast 363 418 12,000  Level Philadelphia TRACON
Mon 11:57:38 AM 39.7000 -75.2000 43° Northeast 362 417 12,000 -150 Level Philadelphia TRACON
Mon 11:58:38 AM 39.7833 -75.1833 North 295 339 11,700 -800 Descending Philadelphia TRACON
Mon 11:59:38 AM 39.8500 -75.1333 30° Northeast 328 377 10,400 -1,500 Descending Philadelphia TRACON
Mon 12:00:38 PM 39.9167 -75.0500 44° Northeast 284 327 8,700 -2,050 Descending Philadelphia TRACON
Mon 12:01:38 PM 39.9833 -75.0000 30° Northeast 281 323 6,300 -1,500 Descending Philadelphia TRACON
Mon 12:02:38 PM 40.0333 -74.9333 46° Northeast 278 320 5,700 -700 Descending Philadelphia TRACON
Mon 12:03:38 PM 40.1000 -74.8667 37° Northeast 244 281 4,900 -1,050 Descending Philadelphia TRACON
Mon 12:04:38 PM 40.1333 -74.8167 49° Northeast 215 247 3,600 -1,400 Descending Philadelphia TRACON
Mon 12:05:38 PM 40.1833 -74.7833 27° Northeast 179 206 2,100 -1,000 Descending Philadelphia TRACON
Mon 12:06:38 PM 40.2167 -74.7667 21° North 128 147 1,600 -550 Descending Philadelphia TRACON
Mon 12:07:38 PM 40.2500 -74.7833 339° North 96 110 1,000 -600 Descending Philadelphia TRACON
Mon 12:09:00 PM 40.2667 -74.8000 31° Northeast  Level FlightAware Approximate
Mon 12:16:00 PM 40.2767 -74.8135 31° Northeast  Level Estimated

Login

Don't have an account? Register now (free) for customized features, flight alerts, and more!